sensor_id;sensor_type;location;lat;lon;timestamp;temperature;humidity
39925;DHT22;25592;49.986;11.618;2022-12-18T00:01:44;-4.10;93.20
39925;DHT22;25592;49.986;11.618;2022-12-18T00:04:29;-4.20;93.50
39925;DHT22;25592;49.986;11.618;2022-12-18T00:07:15;-4.20;93.00
39925;DHT22;25592;49.986;11.618;2022-12-18T00:10:00;-4.30;92.70
39925;DHT22;25592;49.986;11.618;2022-12-18T00:12:46;-4.30;93.50
39925;DHT22;25592;49.986;11.618;2022-12-18T00:15:34;-4.30;93.80
39925;DHT22;25592;49.986;11.618;2022-12-18T00:18:20;-4.30;93.20
39925;DHT22;25592;49.986;11.618;2022-12-18T00:21:07;-4.40;92.90
39925;DHT22;25592;49.986;11.618;2022-12-18T00:23:53;-4.40;93.00
39925;DHT22;25592;49.986;11.618;2022-12-18T00:26:39;-4.40;93.20
39925;DHT22;25592;49.986;11.618;2022-12-18T00:29:24;-4.40;93.00
39925;DHT22;25592;49.986;11.618;2022-12-18T00:32:10;-4.50;92.40
39925;DHT22;25592;49.986;11.618;2022-12-18T00:34:55;-4.50;93.00
39925;DHT22;25592;49.986;11.618;2022-12-18T00:37:40;-4.50;92.80
39925;DHT22;25592;49.986;11.618;2022-12-18T00:40:26;-4.50;92.90
39925;DHT22;25592;49.986;11.618;2022-12-18T00:43:11;-4.50;93.60
39925;DHT22;25592;49.986;11.618;2022-12-18T00:45:56;-4.60;92.70
39925;DHT22;25592;49.986;11.618;2022-12-18T00:48:42;-4.50;93.80
39925;DHT22;25592;49.986;11.618;2022-12-18T00:51:28;-4.60;92.70
39925;DHT22;25592;49.986;11.618;2022-12-18T00:54:13;-4.60;92.50
39925;DHT22;25592;49.986;11.618;2022-12-18T00:56:58;-4.70;92.00
39925;DHT22;25592;49.986;11.618;2022-12-18T00:59:44;-4.70;92.90
39925;DHT22;25592;49.986;11.618;2022-12-18T01:02:29;-4.70;93.40
39925;DHT22;25592;49.986;11.618;2022-12-18T01:05:15;-4.70;93.10
39925;DHT22;25592;49.986;11.618;2022-12-18T01:08:00;-4.70;93.50
39925;DHT22;25592;49.986;11.618;2022-12-18T01:10:46;-4.70;93.30
39925;DHT22;25592;49.986;11.618;2022-12-18T01:13:31;-4.70;92.90
39925;DHT22;25592;49.986;11.618;2022-12-18T01:16:17;-4.70;91.80
39925;DHT22;25592;49.986;11.618;2022-12-18T01:19:02;-4.90;92.50
39925;DHT22;25592;49.986;11.618;2022-12-18T01:21:48;-4.70;93.80
39925;DHT22;25592;49.986;11.618;2022-12-18T01:24:33;-4.70;93.50
39925;DHT22;25592;49.986;11.618;2022-12-18T01:27:19;-4.70;93.80
39925;DHT22;25592;49.986;11.618;2022-12-18T01:30:05;-4.70;93.40
39925;DHT22;25592;49.986;11.618;2022-12-18T01:32:50;-4.70;93.80
39925;DHT22;25592;49.986;11.618;2022-12-18T01:35:41;-4.70;92.70
39925;DHT22;25592;49.986;11.618;2022-12-18T01:38:28;-4.80;92.90
39925;DHT22;25592;49.986;11.618;2022-12-18T01:41:16;-4.90;92.50
39925;DHT22;25592;49.986;11.618;2022-12-18T01:44:46;-5.00;92.20
39925;DHT22;25592;49.986;11.618;2022-12-18T01:50:14;-5.20;92.90
39925;DHT22;25592;49.986;11.618;2022-12-18T01:53:12;-5.30;92.40
39925;DHT22;25592;49.986;11.618;2022-12-18T01:55:59;-5.20;92.60
39925;DHT22;25592;49.986;11.618;2022-12-18T01:58:59;-5.20;93.10
39925;DHT22;25592;49.986;11.618;2022-12-18T02:01:46;-5.10;93.80
39925;DHT22;25592;49.986;11.618;2022-12-18T02:04:32;-5.10;93.00
39925;DHT22;25592;49.986;11.618;2022-12-18T02:07:32;-5.20;92.50
39925;DHT22;25592;49.986;11.618;2022-12-18T02:13:26;-5.30;92.50
39925;DHT22;25592;49.986;11.618;2022-12-18T02:19:53;-5.30;92.40
39925;DHT22;25592;49.986;11.618;2022-12-18T02:29:03;-5.40;93.00
39925;DHT22;25592;49.986;11.618;2022-12-18T02:31:51;-5.40;92.80
39925;DHT22;25592;49.986;11.618;2022-12-18T02:34:39;-5.40;92.30
39925;DHT22;25592;49.986;11.618;2022-12-18T02:37:26;-5.50;92.60
39925;DHT22;25592;49.986;11.618;2022-12-18T02:40:13;-5.50;92.00
39925;DHT22;25592;49.986;11.618;2022-12-18T02:43:06;-5.50;92.80
39925;DHT22;25592;49.986;11.618;2022-12-18T02:45:59;-5.50;92.80
39925;DHT22;25592;49.986;11.618;2022-12-18T02:48:45;-5.60;92.20
39925;DHT22;25592;49.986;11.618;2022-12-18T02:55:06;-5.70;91.50
39925;DHT22;25592;49.986;11.618;2022-12-18T03:00:48;-5.80;92.10
39925;DHT22;25592;49.986;11.618;2022-12-18T03:03:51;-5.70;92.70
39925;DHT22;25592;49.986;11.618;2022-12-18T03:06:45;-5.70;92.30
39925;DHT22;25592;49.986;11.618;2022-12-18T03:09:36;-5.70;92.30
39925;DHT22;25592;49.986;11.618;2022-12-18T03:12:31;-5.70;92.30
39925;DHT22;25592;49.986;11.618;2022-12-18T03:15:22;-5.70;93.10
39925;DHT22;25592;49.986;11.618;2022-12-18T03:18:13;-5.60;93.40
39925;DHT22;25592;49.986;11.618;2022-12-18T03:21:04;-5.50;94.00
39925;DHT22;25592;49.986;11.618;2022-12-18T03:23:51;-5.40;94.10
39925;DHT22;25592;49.986;11.618;2022-12-18T03:26:41;-5.30;93.30
39925;DHT22;25592;49.986;11.618;2022-12-18T03:29:35;-5.30;93.00
39925;DHT22;25592;49.986;11.618;2022-12-18T03:32:29;-5.30;93.80
39925;DHT22;25592;49.986;11.618;2022-12-18T03:35:22;-5.30;94.00
39925;DHT22;25592;49.986;11.618;2022-12-18T03:38:09;-5.20;94.00
39925;DHT22;25592;49.986;11.618;2022-12-18T03:47:28;-5.10;93.60
39925;DHT22;25592;49.986;11.618;2022-12-18T03:50:22;-5.20;92.70
39925;DHT22;25592;49.986;11.618;2022-12-18T03:53:25;-5.30;93.20
39925;DHT22;25592;49.986;11.618;2022-12-18T03:56:16;-5.30;93.30
39925;DHT22;25592;49.986;11.618;2022-12-18T03:59:03;-5.30;92.30
39925;DHT22;25592;49.986;11.618;2022-12-18T04:01:50;-5.40;93.30
39925;DHT22;25592;49.986;11.618;2022-12-18T04:04:38;-5.40;93.40
39925;DHT22;25592;49.986;11.618;2022-12-18T04:07:25;-5.30;93.70
39925;DHT22;25592;49.986;11.618;2022-12-18T04:10:11;-5.30;93.90
39925;DHT22;25592;49.986;11.618;2022-12-18T04:12:57;-5.20;94.30
39925;DHT22;25592;49.986;11.618;2022-12-18T04:15:43;-5.20;93.30
39925;DHT22;25592;49.986;11.618;2022-12-18T04:18:28;-5.20;93.90
39925;DHT22;25592;49.986;11.618;2022-12-18T04:21:14;-5.30;93.10
39925;DHT22;25592;49.986;11.618;2022-12-18T04:23:59;-5.40;92.00
39925;DHT22;25592;49.986;11.618;2022-12-18T04:26:44;-5.50;91.90
39925;DHT22;25592;49.986;11.618;2022-12-18T04:29:30;-5.60;92.00
39925;DHT22;25592;49.986;11.618;2022-12-18T04:32:15;-5.70;91.90
39925;DHT22;25592;49.986;11.618;2022-12-18T04:35:01;-5.70;92.40
39925;DHT22;25592;49.986;11.618;2022-12-18T04:37:47;-5.70;93.10
39925;DHT22;25592;49.986;11.618;2022-12-18T04:40:35;-5.70;93.30
39925;DHT22;25592;49.986;11.618;2022-12-18T04:43:21;-5.70;92.90
39925;DHT22;25592;49.986;11.618;2022-12-18T04:46:07;-5.70;92.60
39925;DHT22;25592;49.986;11.618;2022-12-18T04:48:52;-5.60;93.10
39925;DHT22;25592;49.986;11.618;2022-12-18T04:51:38;-5.60;93.20
39925;DHT22;25592;49.986;11.618;2022-12-18T04:54:23;-5.50;93.50
39925;DHT22;25592;49.986;11.618;2022-12-18T04:57:09;-5.50;93.40
39925;DHT22;25592;49.986;11.618;2022-12-18T04:59:54;-5.50;93.30
39925;DHT22;25592;49.986;11.618;2022-12-18T05:02:40;-5.50;93.80
39925;DHT22;25592;49.986;11.618;2022-12-18T05:05:25;-5.50;92.90
39925;DHT22;25592;49.986;11.618;2022-12-18T05:08:10;-5.40;93.80
39925;DHT22;25592;49.986;11.618;2022-12-18T05:11:07;-5.40;93.20
39925;DHT22;25592;49.986;11.618;2022-12-18T05:13:53;-5.50;92.30
39925;DHT22;25592;49.986;11.618;2022-12-18T05:16:40;-5.60;93.20
39925;DHT22;25592;49.986;11.618;2022-12-18T05:19:26;-5.50;93.60
39925;DHT22;25592;49.986;11.618;2022-12-18T05:22:11;-5.50;94.00
39925;DHT22;25592;49.986;11.618;2022-12-18T05:24:57;-5.40;93.90
39925;DHT22;25592;49.986;11.618;2022-12-18T05:27:42;-5.40;93.40
39925;DHT22;25592;49.986;11.618;2022-12-18T05:30:27;-5.40;93.20
39925;DHT22;25592;49.986;11.618;2022-12-18T05:33:13;-5.50;93.60
39925;DHT22;25592;49.986;11.618;2022-12-18T05:36:01;-5.50;93.60
39925;DHT22;25592;49.986;11.618;2022-12-18T05:38:47;-5.50;93.30
39925;DHT22;25592;49.986;11.618;2022-12-18T05:41:32;-5.50;92.70
39925;DHT22;25592;49.986;11.618;2022-12-18T05:44:18;-5.50;93.30
39925;DHT22;25592;49.986;11.618;2022-12-18T05:47:03;-5.50;93.00
39925;DHT22;25592;49.986;11.618;2022-12-18T05:49:49;-5.60;93.00
39925;DHT22;25592;49.986;11.618;2022-12-18T05:52:34;-5.60;93.50
39925;DHT22;25592;49.986;11.618;2022-12-18T05:55:19;-5.50;93.70
39925;DHT22;25592;49.986;11.618;2022-12-18T05:58:06;-5.50;93.60
39925;DHT22;25592;49.986;11.618;2022-12-18T06:00:52;-5.50;93.10
39925;DHT22;25592;49.986;11.618;2022-12-18T06:03:38;-5.60;92.90
39925;DHT22;25592;49.986;11.618;2022-12-18T06:06:26;-5.60;92.30
39925;DHT22;25592;49.986;11.618;2022-12-18T06:09:12;-5.80;92.20
39925;DHT22;25592;49.986;11.618;2022-12-18T06:11:58;-5.80;92.40
39925;DHT22;25592;49.986;11.618;2022-12-18T06:14:43;-5.80;92.80
39925;DHT22;25592;49.986;11.618;2022-12-18T06:17:30;-5.80;93.10
39925;DHT22;25592;49.986;11.618;2022-12-18T06:20:15;-5.80;92.60
39925;DHT22;25592;49.986;11.618;2022-12-18T06:23:01;-5.80;92.50
39925;DHT22;25592;49.986;11.618;2022-12-18T06:25:46;-5.80;92.60
39925;DHT22;25592;49.986;11.618;2022-12-18T06:28:31;-5.80;92.70
39925;DHT22;25592;49.986;11.618;2022-12-18T06:31:17;-5.80;93.30
39925;DHT22;25592;49.986;11.618;2022-12-18T06:34:04;-5.80;93.40
39925;DHT22;25592;49.986;11.618;2022-12-18T06:36:49;-5.80;92.90
39925;DHT22;25592;49.986;11.618;2022-12-18T06:39:34;-5.80;93.00
39925;DHT22;25592;49.986;11.618;2022-12-18T06:42:24;-5.80;93.60
39925;DHT22;25592;49.986;11.618;2022-12-18T06:45:09;-5.70;93.60
39925;DHT22;25592;49.986;11.618;2022-12-18T06:47:56;-5.70;92.80
39925;DHT22;25592;49.986;11.618;2022-12-18T06:50:42;-5.80;93.00
39925;DHT22;25592;49.986;11.618;2022-12-18T06:53:28;-5.70;93.60
39925;DHT22;25592;49.986;11.618;2022-12-18T06:56:14;-5.70;93.30
39925;DHT22;25592;49.986;11.618;2022-12-18T06:58:59;-5.70;93.30
39925;DHT22;25592;49.986;11.618;2022-12-18T07:01:45;-5.80;92.50
39925;DHT22;25592;49.986;11.618;2022-12-18T07:04:31;-5.80;93.30
39925;DHT22;25592;49.986;11.618;2022-12-18T07:07:16;-5.80;93.30
39925;DHT22;25592;49.986;11.618;2022-12-18T07:10:02;-5.80;92.80
39925;DHT22;25592;49.986;11.618;2022-12-18T07:12:47;-5.80;93.60
39925;DHT22;25592;49.986;11.618;2022-12-18T07:15:33;-5.80;93.60
39925;DHT22;25592;49.986;11.618;2022-12-18T07:18:18;-5.70;93.40
39925;DHT22;25592;49.986;11.618;2022-12-18T07:21:10;-5.70;93.80
39925;DHT22;25592;49.986;11.618;2022-12-18T07:23:56;-5.70;94.10
39925;DHT22;25592;49.986;11.618;2022-12-18T07:26:41;-5.60;94.00
39925;DHT22;25592;49.986;11.618;2022-12-18T07:29:27;-5.60;93.80
39925;DHT22;25592;49.986;11.618;2022-12-18T07:32:12;-5.60;93.60
39925;DHT22;25592;49.986;11.618;2022-12-18T07:34:58;-5.60;93.90
39925;DHT22;25592;49.986;11.618;2022-12-18T07:37:43;-5.60;94.10
39925;DHT22;25592;49.986;11.618;2022-12-18T07:40:29;-5.50;94.10
39925;DHT22;25592;49.986;11.618;2022-12-18T07:43:14;-5.40;94.00
39925;DHT22;25592;49.986;11.618;2022-12-18T07:46:01;-5.50;93.80
39925;DHT22;25592;49.986;11.618;2022-12-18T07:48:47;-5.50;93.40
39925;DHT22;25592;49.986;11.618;2022-12-18T07:51:34;-5.50;93.50
39925;DHT22;25592;49.986;11.618;2022-12-18T07:54:19;-5.50;93.70
39925;DHT22;25592;49.986;11.618;2022-12-18T07:57:05;-5.50;93.10
39925;DHT22;25592;49.986;11.618;2022-12-18T08:00:11;-5.50;93.30
39925;DHT22;25592;49.986;11.618;2022-12-18T08:02:56;-5.50;93.40
39925;DHT22;25592;49.986;11.618;2022-12-18T08:05:42;-5.10;93.50
39925;DHT22;25592;49.986;11.618;2022-12-18T08:08:28;-5.50;93.40
39925;DHT22;25592;49.986;11.618;2022-12-18T08:11:14;-5.40;93.20
39925;DHT22;25592;49.986;11.618;2022-12-18T08:13:59;-5.40;93.00
39925;DHT22;25592;49.986;11.618;2022-12-18T08:16:45;-5.40;93.40
39925;DHT22;25592;49.986;11.618;2022-12-18T08:19:30;-5.40;93.20
39925;DHT22;25592;49.986;11.618;2022-12-18T08:22:15;-5.30;93.30
39925;DHT22;25592;49.986;11.618;2022-12-18T08:25:01;-5.40;93.40
39925;DHT22;25592;49.986;11.618;2022-12-18T08:27:47;-5.30;93.40
39925;DHT22;25592;49.986;11.618;2022-12-18T08:30:32;-5.30;93.60
39925;DHT22;25592;49.986;11.618;2022-12-18T08:33:17;-5.20;93.60
39925;DHT22;25592;49.986;11.618;2022-12-18T08:36:04;-5.20;93.40
39925;DHT22;25592;49.986;11.618;2022-12-18T08:38:50;-5.30;93.50
39925;DHT22;25592;49.986;11.618;2022-12-18T08:41:35;-5.20;93.50
39925;DHT22;25592;49.986;11.618;2022-12-18T08:44:21;-5.30;93.50
39925;DHT22;25592;49.986;11.618;2022-12-18T08:47:24;-5.30;93.60
39925;DHT22;25592;49.986;11.618;2022-12-18T08:50:10;-5.30;93.80
39925;DHT22;25592;49.986;11.618;2022-12-18T08:52:57;-5.20;93.90
39925;DHT22;25592;49.986;11.618;2022-12-18T08:55:42;-5.20;94.00
39925;DHT22;25592;49.986;11.618;2022-12-18T08:58:34;-5.10;94.00
39925;DHT22;25592;49.986;11.618;2022-12-18T09:01:20;-5.10;94.10
39925;DHT22;25592;49.986;11.618;2022-12-18T09:04:05;-5.10;94.00
39925;DHT22;25592;49.986;11.618;2022-12-18T09:06:52;-5.00;94.00
39925;DHT22;25592;49.986;11.618;2022-12-18T09:09:40;-5.10;93.90
39925;DHT22;25592;49.986;11.618;2022-12-18T09:12:25;-5.10;93.90
39925;DHT22;25592;49.986;11.618;2022-12-18T09:15:11;-5.20;94.10
39925;DHT22;25592;49.986;11.618;2022-12-18T09:17:56;-5.40;94.30
39925;DHT22;25592;49.986;11.618;2022-12-18T09:20:42;-5.30;94.70
39925;DHT22;25592;49.986;11.618;2022-12-18T09:23:27;-5.20;94.70
39925;DHT22;25592;49.986;11.618;2022-12-18T09:26:13;-5.10;94.70
39925;DHT22;25592;49.986;11.618;2022-12-18T09:28:58;-5.10;94.70
39925;DHT22;25592;49.986;11.618;2022-12-18T09:31:43;-5.20;94.60
39925;DHT22;25592;49.986;11.618;2022-12-18T09:34:29;-5.20;94.90
39925;DHT22;25592;49.986;11.618;2022-12-18T09:37:14;-5.20;95.10
39925;DHT22;25592;49.986;11.618;2022-12-18T09:40:00;-5.00;94.90
39925;DHT22;25592;49.986;11.618;2022-12-18T09:42:50;-4.80;94.90
39925;DHT22;25592;49.986;11.618;2022-12-18T09:45:47;-4.70;94.90
39925;DHT22;25592;49.986;11.618;2022-12-18T09:48:46;-4.60;94.90
39925;DHT22;25592;49.986;11.618;2022-12-18T09:51:37;-4.50;94.90
39925;DHT22;25592;49.986;11.618;2022-12-18T09:54:48;-4.30;95.10
39925;DHT22;25592;49.986;11.618;2022-12-18T09:57:39;-4.20;95.00
39925;DHT22;25592;49.986;11.618;2022-12-18T10:00:26;-4.00;95.10
39925;DHT22;25592;49.986;11.618;2022-12-18T10:03:13;-3.90;94.70
39925;DHT22;25592;49.986;11.618;2022-12-18T10:06:24;-3.70;95.10
39925;DHT22;25592;49.986;11.618;2022-12-18T10:12:12;-3.10;94.80
39925;DHT22;25592;49.986;11.618;2022-12-18T10:15:12;-2.90;94.70
39925;DHT22;25592;49.986;11.618;2022-12-18T10:21:18;-2.80;94.40
39925;DHT22;25592;49.986;11.618;2022-12-18T10:27:21;-2.00;94.30
39925;DHT22;25592;49.986;11.618;2022-12-18T10:30:15;-2.10;93.70
39925;DHT22;25592;49.986;11.618;2022-12-18T10:33:02;-1.70;94.10
39925;DHT22;25592;49.986;11.618;2022-12-18T10:35:52;-1.50;93.80
39925;DHT22;25592;49.986;11.618;2022-12-18T10:38:37;-1.40;93.50
39925;DHT22;25592;49.986;11.618;2022-12-18T10:41:26;-1.20;93.70
39925;DHT22;25592;49.986;11.618;2022-12-18T10:44:19;-1.10;93.40
39925;DHT22;25592;49.986;11.618;2022-12-18T10:47:12;-1.00;93.90
39925;DHT22;25592;49.986;11.618;2022-12-18T10:49:59;-1.10;93.80
39925;DHT22;25592;49.986;11.618;2022-12-18T10:52:56;-0.70;94.00
39925;DHT22;25592;49.986;11.618;2022-12-18T10:55:44;-0.40;93.70
39925;DHT22;25592;49.986;11.618;2022-12-18T10:58:36;-0.20;93.50
39925;DHT22;25592;49.986;11.618;2022-12-18T11:01:21;-0.20;93.70
39925;DHT22;25592;49.986;11.618;2022-12-18T11:04:17;-0.10;93.50
39925;DHT22;25592;49.986;11.618;2022-12-18T11:07:07;0.20;93.60
39925;DHT22;25592;49.986;11.618;2022-12-18T11:10:02;0.20;93.40
39925;DHT22;25592;49.986;11.618;2022-12-18T11:12:48;0.20;93.30
39925;DHT22;25592;49.986;11.618;2022-12-18T11:15:33;0.20;93.30
39925;DHT22;25592;49.986;11.618;2022-12-18T11:21:09;0.40;93.50
39925;DHT22;25592;49.986;11.618;2022-12-18T11:23:55;0.30;92.80
39925;DHT22;25592;49.986;11.618;2022-12-18T11:26:41;0.30;93.00
39925;DHT22;25592;49.986;11.618;2022-12-18T11:29:36;0.40;93.10
39925;DHT22;25592;49.986;11.618;2022-12-18T11:32:39;0.90;93.50
39925;DHT22;25592;49.986;11.618;2022-12-18T11:38:30;0.90;93.10
39925;DHT22;25592;49.986;11.618;2022-12-18T11:41:29;0.80;92.80
39925;DHT22;25592;49.986;11.618;2022-12-18T11:44:58;0.50;92.90
39925;DHT22;25592;49.986;11.618;2022-12-18T11:50:49;-0.10;93.50
39925;DHT22;25592;49.986;11.618;2022-12-18T11:53:35;0.10;97.10
39925;DHT22;25592;49.986;11.618;2022-12-18T11:56:32;0.60;97.40
39925;DHT22;25592;49.986;11.618;2022-12-18T12:03:00;0.70;94.60
39925;DHT22;25592;49.986;11.618;2022-12-18T12:08:51;1.20;95.30
39925;DHT22;25592;49.986;11.618;2022-12-18T12:21:27;0.90;95.00
39925;DHT22;25592;49.986;11.618;2022-12-18T12:27:39;0.70;95.50
39925;DHT22;25592;49.986;11.618;2022-12-18T12:37:08;1.10;94.90
39925;DHT22;25592;49.986;11.618;2022-12-18T12:39:55;0.60;95.20
39925;DHT22;25592;49.986;11.618;2022-12-18T12:46:05;0.70;95.40
39925;DHT22;25592;49.986;11.618;2022-12-18T12:48:57;0.70;95.50
39925;DHT22;25592;49.986;11.618;2022-12-18T12:51:45;0.90;95.60
39925;DHT22;25592;49.986;11.618;2022-12-18T12:54:34;1.00;95.40
39925;DHT22;25592;49.986;11.618;2022-12-18T12:57:26;0.70;95.00
39925;DHT22;25592;49.986;11.618;2022-12-18T13:00:17;0.70;95.80
39925;DHT22;25592;49.986;11.618;2022-12-18T13:06:30;0.90;95.70
39925;DHT22;25592;49.986;11.618;2022-12-18T13:09:18;0.80;95.00
39925;DHT22;25592;49.986;11.618;2022-12-18T13:12:11;0.80;95.30
39925;DHT22;25592;49.986;11.618;2022-12-18T13:15:34;0.70;95.30
39925;DHT22;25592;49.986;11.618;2022-12-18T13:18:24;0.80;95.30
39925;DHT22;25592;49.986;11.618;2022-12-18T13:21:29;0.60;95.30
39925;DHT22;25592;49.986;11.618;2022-12-18T13:24:23;0.50;95.30
39925;DHT22;25592;49.986;11.618;2022-12-18T13:36:26;0.30;95.90
39925;DHT22;25592;49.986;11.618;2022-12-18T13:45:37;0.30;96.10
39925;DHT22;25592;49.986;11.618;2022-12-18T13:48:25;0.20;95.80
39925;DHT22;25592;49.986;11.618;2022-12-18T13:51:16;0.20;95.90
39925;DHT22;25592;49.986;11.618;2022-12-18T13:54:18;0.20;96.20
39925;DHT22;25592;49.986;11.618;2022-12-18T13:57:05;0.20;96.00
39925;DHT22;25592;49.986;11.618;2022-12-18T13:59:52;0.10;95.90
39925;DHT22;25592;49.986;11.618;2022-12-18T14:02:37;-0.10;95.90
39925;DHT22;25592;49.986;11.618;2022-12-18T14:05:31;-0.10;96.20
39925;DHT22;25592;49.986;11.618;2022-12-18T14:08:18;-0.30;96.20
39925;DHT22;25592;49.986;11.618;2022-12-18T14:11:04;-0.40;96.50
39925;DHT22;25592;49.986;11.618;2022-12-18T14:13:52;-0.40;96.70
39925;DHT22;25592;49.986;11.618;2022-12-18T14:16:37;-0.50;96.70
39925;DHT22;25592;49.986;11.618;2022-12-18T14:19:27;-0.60;96.80
39925;DHT22;25592;49.986;11.618;2022-12-18T14:22:21;-0.70;97.00
39925;DHT22;25592;49.986;11.618;2022-12-18T14:30:53;-0.90;97.40
39925;DHT22;25592;49.986;11.618;2022-12-18T14:33:40;-1.00;97.50
39925;DHT22;25592;49.986;11.618;2022-12-18T14:36:28;-1.10;97.50
39925;DHT22;25592;49.986;11.618;2022-12-18T14:39:17;-1.00;97.60
39925;DHT22;25592;49.986;11.618;2022-12-18T14:42:03;-1.00;97.70
39925;DHT22;25592;49.986;11.618;2022-12-18T14:44:48;-1.10;97.60
39925;DHT22;25592;49.986;11.618;2022-12-18T14:47:54;-1.10;97.70
39925;DHT22;25592;49.986;11.618;2022-12-18T14:50:39;-1.10;97.60
39925;DHT22;25592;49.986;11.618;2022-12-18T14:53:37;-1.10;97.70
39925;DHT22;25592;49.986;11.618;2022-12-18T14:59:22;-1.10;97.50
39925;DHT22;25592;49.986;11.618;2022-12-18T15:02:23;-1.20;97.60
39925;DHT22;25592;49.986;11.618;2022-12-18T15:08:00;-1.20;97.90
39925;DHT22;25592;49.986;11.618;2022-12-18T15:10:48;-1.30;98.20
39925;DHT22;25592;49.986;11.618;2022-12-18T15:13:33;-1.60;98.10
39925;DHT22;25592;49.986;11.618;2022-12-18T15:16:20;-1.70;98.50
39925;DHT22;25592;49.986;11.618;2022-12-18T15:19:07;-1.90;98.70
39925;DHT22;25592;49.986;11.618;2022-12-18T15:21:53;-2.00;98.90
39925;DHT22;25592;49.986;11.618;2022-12-18T15:24:38;-2.00;99.00
39925;DHT22;25592;49.986;11.618;2022-12-18T15:27:30;-2.00;99.00
39925;DHT22;25592;49.986;11.618;2022-12-18T15:30:19;-2.00;99.00
39925;DHT22;25592;49.986;11.618;2022-12-18T15:33:24;-2.00;99.00
39925;DHT22;25592;49.986;11.618;2022-12-18T15:36:15;-2.00;99.10
39925;DHT22;25592;49.986;11.618;2022-12-18T15:39:03;-2.00;99.00
39925;DHT22;25592;49.986;11.618;2022-12-18T15:41:51;-2.00;99.00
39925;DHT22;25592;49.986;11.618;2022-12-18T15:44:55;-1.90;99.20
39925;DHT22;25592;49.986;11.618;2022-12-18T15:47:41;-2.00;99.00
39925;DHT22;25592;49.986;11.618;2022-12-18T15:50:29;-1.90;99.10
39925;DHT22;25592;49.986;11.618;2022-12-18T15:53:15;-2.00;98.90
39925;DHT22;25592;49.986;11.618;2022-12-18T15:56:00;-1.90;99.10
39925;DHT22;25592;49.986;11.618;2022-12-18T15:59:10;-1.90;99.00
39925;DHT22;25592;49.986;11.618;2022-12-18T16:01:56;-1.80;99.00
39925;DHT22;25592;49.986;11.618;2022-12-18T16:04:41;-1.80;98.80
39925;DHT22;25592;49.986;11.618;2022-12-18T16:07:27;-1.70;98.80
39925;DHT22;25592;49.986;11.618;2022-12-18T16:10:15;-1.70;99.90
39925;DHT22;25592;49.986;11.618;2022-12-18T16:13:01;-1.40;99.90
39925;DHT22;25592;49.986;11.618;2022-12-18T16:15:47;-1.30;99.90
39925;DHT22;25592;49.986;11.618;2022-12-18T16:18:32;-0.80;99.90
39925;DHT22;25592;49.986;11.618;2022-12-18T16:21:17;-0.70;99.90
39925;DHT22;25592;49.986;11.618;2022-12-18T16:24:03;-1.00;99.50
39925;DHT22;25592;49.986;11.618;2022-12-18T16:26:49;-1.10;99.40
39925;DHT22;25592;49.986;11.618;2022-12-18T16:29:36;-1.20;99.90
39925;DHT22;25592;49.986;11.618;2022-12-18T16:32:22;-1.20;99.10
39925;DHT22;25592;49.986;11.618;2022-12-18T16:35:13;-1.50;98.50
39925;DHT22;25592;49.986;11.618;2022-12-18T16:37:58;-1.50;98.90
39925;DHT22;25592;49.986;11.618;2022-12-18T16:40:44;-1.50;99.30
39925;DHT22;25592;49.986;11.618;2022-12-18T16:43:48;-1.50;99.40
39925;DHT22;25592;49.986;11.618;2022-12-18T16:46:40;-1.50;99.40
39925;DHT22;25592;49.986;11.618;2022-12-18T16:49:28;-1.60;99.50
39925;DHT22;25592;49.986;11.618;2022-12-18T16:52:14;-1.40;99.30
39925;DHT22;25592;49.986;11.618;2022-12-18T16:55:00;-1.60;99.60
39925;DHT22;25592;49.986;11.618;2022-12-18T16:57:45;-1.60;98.90
39925;DHT22;25592;49.986;11.618;2022-12-18T17:00:31;-1.70;98.90
39925;DHT22;25592;49.986;11.618;2022-12-18T17:03:16;-1.70;99.40
39925;DHT22;25592;49.986;11.618;2022-12-18T17:06:05;-1.70;99.10
39925;DHT22;25592;49.986;11.618;2022-12-18T17:09:00;-1.80;98.80
39925;DHT22;25592;49.986;11.618;2022-12-18T17:11:46;-1.70;99.40
39925;DHT22;25592;49.986;11.618;2022-12-18T17:14:32;-1.90;98.80
39925;DHT22;25592;49.986;11.618;2022-12-18T17:17:18;-1.90;99.10
39925;DHT22;25592;49.986;11.618;2022-12-18T17:20:07;-2.00;98.90
39925;DHT22;25592;49.986;11.618;2022-12-18T17:22:52;-1.90;99.60
39925;DHT22;25592;49.986;11.618;2022-12-18T17:25:41;-1.90;99.10
39925;DHT22;25592;49.986;11.618;2022-12-18T17:28:27;-1.80;99.20
39925;DHT22;25592;49.986;11.618;2022-12-18T17:31:18;-1.80;98.90
39925;DHT22;25592;49.986;11.618;2022-12-18T17:34:04;-1.80;98.90
39925;DHT22;25592;49.986;11.618;2022-12-18T17:36:49;-1.80;98.70
39925;DHT22;25592;49.986;11.618;2022-12-18T17:39:35;-1.80;99.00
39925;DHT22;25592;49.986;11.618;2022-12-18T17:42:20;-1.80;98.70
39925;DHT22;25592;49.986;11.618;2022-12-18T17:45:06;-1.80;98.70
39925;DHT22;25592;49.986;11.618;2022-12-18T17:47:51;-1.80;98.80
39925;DHT22;25592;49.986;11.618;2022-12-18T17:50:43;-1.80;98.40
39925;DHT22;25592;49.986;11.618;2022-12-18T17:53:29;-1.80;99.00
39925;DHT22;25592;49.986;11.618;2022-12-18T17:56:17;-1.80;99.00
39925;DHT22;25592;49.986;11.618;2022-12-18T17:59:04;-1.80;98.80
39925;DHT22;25592;49.986;11.618;2022-12-18T18:01:50;-1.80;98.50
39925;DHT22;25592;49.986;11.618;2022-12-18T18:04:36;-2.00;98.10
39925;DHT22;25592;49.986;11.618;2022-12-18T18:07:21;-2.00;98.60
39925;DHT22;25592;49.986;11.618;2022-12-18T18:10:06;-2.20;98.30
39925;DHT22;25592;49.986;11.618;2022-12-18T18:12:52;-2.40;98.40
39925;DHT22;25592;49.986;11.618;2022-12-18T18:15:57;-2.30;99.40
39925;DHT22;25592;49.986;11.618;2022-12-18T18:18:42;-2.00;99.20
39925;DHT22;25592;49.986;11.618;2022-12-18T18:21:29;-2.00;99.90
39925;DHT22;25592;49.986;11.618;2022-12-18T18:24:17;-1.90;99.50
39925;DHT22;25592;49.986;11.618;2022-12-18T18:27:03;-1.90;99.20
39925;DHT22;25592;49.986;11.618;2022-12-18T18:29:48;-1.80;99.60
39925;DHT22;25592;49.986;11.618;2022-12-18T18:32:33;-1.80;99.60
39925;DHT22;25592;49.986;11.618;2022-12-18T18:35:23;-1.70;99.90
39925;DHT22;25592;49.986;11.618;2022-12-18T18:38:29;-1.70;99.40
39925;DHT22;25592;49.986;11.618;2022-12-18T18:41:15;-1.80;98.80
39925;DHT22;25592;49.986;11.618;2022-12-18T18:44:00;-1.80;99.10
39925;DHT22;25592;49.986;11.618;2022-12-18T18:46:45;-1.70;99.00
39925;DHT22;25592;49.986;11.618;2022-12-18T18:49:31;-1.70;99.20
39925;DHT22;25592;49.986;11.618;2022-12-18T18:52:16;-1.80;98.90
39925;DHT22;25592;49.986;11.618;2022-12-18T18:55:02;-1.80;98.70
39925;DHT22;25592;49.986;11.618;2022-12-18T18:57:58;-1.70;99.10
39925;DHT22;25592;49.986;11.618;2022-12-18T19:00:53;-1.60;99.90
39925;DHT22;25592;49.986;11.618;2022-12-18T19:03:39;-1.50;99.90
39925;DHT22;25592;49.986;11.618;2022-12-18T19:06:27;-1.60;99.20
39925;DHT22;25592;49.986;11.618;2022-12-18T19:09:13;-1.50;99.90
39925;DHT22;25592;49.986;11.618;2022-12-18T19:11:58;-1.50;99.80
39925;DHT22;25592;49.986;11.618;2022-12-18T19:15:02;-1.60;98.70
39925;DHT22;25592;49.986;11.618;2022-12-18T19:17:47;-1.70;99.00